createdAt,value
2018-01-22T00:01:34.578Z,100202
2018-01-22T00:07:20.937Z,100186
2018-01-22T00:12:50.927Z,100177
2018-01-22T00:15:20.662Z,100166
2018-01-22T00:24:04.136Z,100161
2018-01-22T00:29:37.016Z,100138
2018-01-22T00:35:02.752Z,100118
2018-01-22T00:37:33.760Z,100122
2018-01-22T00:48:35.772Z,100111
2018-01-22T00:51:22.544Z,100107
2018-01-22T01:06:58.281Z,100073
2018-01-22T01:12:42.573Z,100065
2018-01-22T01:17:51.872Z,100049
2018-01-22T01:23:10.431Z,100043
2018-01-22T01:31:03.164Z,100052
2018-01-22T01:33:37.049Z,100050
2018-01-22T03:10:06.580Z,99900
2018-01-22T04:16:11.446Z,99675
2018-01-22T04:21:31.705Z,99864
2018-01-22T04:30:43.348Z,99879
2018-01-22T04:33:12.466Z,99877
2018-01-22T04:35:53.072Z,99874
2018-01-22T04:38:43.514Z,99877
2018-01-22T04:41:18.086Z,99876
2018-01-22T04:49:25.412Z,99875
2018-01-22T04:54:27.602Z,99863
2018-01-22T05:09:28.092Z,99823
2018-01-22T05:11:58.189Z,99802
2018-01-22T05:21:52.997Z,99822
2018-01-22T05:27:26.553Z,99804
2018-01-22T05:29:58.972Z,99807
2018-01-22T05:35:30.068Z,99818
2018-01-22T05:40:34.382Z,99827
2018-01-22T05:43:06.045Z,99828
2018-01-22T05:45:40.130Z,99810
2018-01-22T05:48:08.506Z,99800
2018-01-22T06:00:48.990Z,99817
2018-01-22T06:12:04.341Z,99838
2018-01-22T06:17:23.182Z,99808
2018-01-22T06:25:47.249Z,99819
2018-01-22T06:28:15.897Z,99829
2018-01-22T06:30:50.466Z,99807
2018-01-22T06:33:26.597Z,99821
2018-01-22T06:35:55.971Z,99832
2018-01-22T06:41:04.749Z,99846
2018-01-22T06:43:32.882Z,99844
2018-01-22T06:46:04.053Z,99854
2018-01-22T06:48:38.525Z,99834
2018-01-22T06:51:10.959Z,99837
2018-01-22T06:53:41.416Z,99845
2018-01-22T06:56:10.802Z,99838
2018-01-22T06:58:42.891Z,99844
2018-01-22T07:04:33.852Z,99843
2018-01-22T07:07:01.979Z,99843
2018-01-22T07:09:30.100Z,99822
2018-01-22T07:12:00.474Z,99819
2018-01-22T07:14:39.537Z,99826
2018-01-22T07:17:07.730Z,99827
2018-01-22T07:19:39.936Z,99832
2018-01-22T07:22:08.672Z,99854
2018-01-22T07:24:40.602Z,99883
2018-01-22T07:30:32.212Z,99868
2018-01-22T07:33:04.548Z,99884
2018-01-22T07:42:52.339Z,99866
2018-01-22T07:45:21.239Z,99880
2018-01-22T07:47:49.595Z,99615
2018-01-22T07:50:18.408Z,99879
2018-01-22T07:52:49.634Z,99874
2018-01-22T07:55:21.885Z,99867
2018-01-22T08:01:24.666Z,99878
2018-01-22T08:04:02.689Z,99900
2018-01-22T08:06:49.500Z,99889
2018-01-22T08:09:19.447Z,99875
2018-01-22T08:12:03.437Z,99920
2018-01-22T08:25:09.231Z,99871
2018-01-22T08:27:40.861Z,99877
2018-01-22T08:30:08.973Z,99880
2018-01-22T08:32:46.367Z,99873
2018-01-22T08:35:14.691Z,99874
2018-01-22T08:37:51.993Z,99888
2018-01-22T08:40:32.154Z,99887
2018-01-22T08:43:02.126Z,99888
2018-01-22T08:45:30.617Z,99886
2018-01-22T08:48:01.104Z,99903
2018-01-22T08:50:31.229Z,99887
2018-01-22T08:52:59.580Z,99895
2018-01-22T08:55:33.451Z,99889
2018-01-22T08:58:01.576Z,99890
2018-01-22T09:00:29.785Z,99906
2018-01-22T09:03:00.371Z,99902
2018-01-22T09:05:28.512Z,99906
2018-01-22T09:07:56.620Z,99905
2018-01-22T09:10:26.619Z,99903
2018-01-22T09:15:39.117Z,99911
2018-01-22T09:18:09.709Z,99905
2018-01-22T09:20:41.194Z,99924
2018-01-22T09:23:11.375Z,99933
2018-01-22T09:25:41.952Z,99922
2018-01-22T09:28:10.523Z,99925
2018-01-22T09:30:38.636Z,99913
2018-01-22T09:33:15.481Z,99917
2018-01-22T09:35:49.429Z,99899
2018-01-22T09:38:26.426Z,99918
2018-01-22T09:41:01.463Z,99911
2018-01-22T09:43:36.538Z,99913
2018-01-22T09:46:07.466Z,99917
2018-01-22T09:48:48.726Z,99920
2018-01-22T09:51:26.674Z,99923
2018-01-22T09:54:04.024Z,99932
2018-01-22T09:56:34.260Z,99936
2018-01-22T09:59:32.375Z,99942
2018-01-22T10:02:01.877Z,99936
2018-01-22T10:04:37.436Z,99946
2018-01-22T10:10:44.947Z,99953
2018-01-22T10:13:14.765Z,99967
2018-01-22T10:15:45.852Z,99962
2018-01-22T10:18:16.586Z,99960
2018-01-22T10:20:47.193Z,99962
2018-01-22T10:23:17.403Z,99964
2018-01-22T10:25:48.721Z,99976
2018-01-22T10:28:20.429Z,99971
2018-01-22T10:30:49.756Z,99969
2018-01-22T10:33:17.932Z,99972
2018-01-22T10:35:47.324Z,99971
2018-01-22T10:38:15.432Z,99971
2018-01-22T10:43:26.703Z,99981
2018-01-22T10:45:54.907Z,99977
2018-01-22T10:58:59.459Z,99976
2018-01-22T11:07:09.829Z,99971
2018-01-22T11:09:46.010Z,99963
2018-01-22T11:12:16.506Z,100103
2018-01-22T11:14:58.633Z,99963
2018-01-22T11:17:27.840Z,99962
2018-01-22T11:19:57.554Z,99964
2018-01-22T11:22:35.899Z,99965
2018-01-22T11:25:11.847Z,99972
2018-01-22T11:27:41.710Z,99978
2018-01-22T11:30:11.477Z,99974
2018-01-22T11:32:41.592Z,99979
2018-01-22T11:35:09.976Z,99982
2018-01-22T11:37:41.792Z,99971
2018-01-22T11:40:13.369Z,99974
2018-01-22T11:42:41.527Z,99975
2018-01-22T11:45:10.490Z,99962
2018-01-22T11:47:38.612Z,99959
2018-01-22T11:52:46.565Z,99977
2018-01-22T11:55:19.729Z,99969
2018-01-22T11:57:49.031Z,99983
2018-01-22T12:00:18.109Z,99982
2018-01-22T12:02:46.220Z,99974
2018-01-22T12:05:18.038Z,99985
2018-01-22T12:07:50.103Z,99978
2018-01-22T12:10:25.144Z,99985
2018-01-22T12:15:35.490Z,99987
2018-01-22T12:18:05.333Z,99989
2018-01-22T12:20:34.276Z,100000
2018-01-22T12:23:14.538Z,99989
2018-01-22T12:25:46.019Z,99993
2018-01-22T12:28:17.203Z,99992
2018-01-22T12:30:57.136Z,100004
2018-01-22T12:36:01.651Z,99999
2018-01-22T12:38:41.484Z,100006
2018-01-22T12:44:19.871Z,100021
2018-01-22T12:46:55.521Z,100020
2018-01-22T12:49:26.754Z,100023
2018-01-22T12:51:56.641Z,100016
2018-01-22T12:54:28.681Z,100025
2018-01-22T12:56:58.393Z,100023
2018-01-22T12:59:29.073Z,100027
2018-01-22T13:01:59.765Z,100030
2018-01-22T13:04:31.001Z,100031
2018-01-22T13:07:02.516Z,100033
2018-01-22T13:09:32.389Z,100033
2018-01-22T13:12:02.244Z,100038
2018-01-22T13:14:30.376Z,100032
2018-01-22T13:16:58.503Z,100034
2018-01-22T13:19:31.415Z,100039
2018-01-22T13:28:17.581Z,100047
2018-01-22T13:30:46.835Z,100053
2018-01-22T13:41:27.764Z,100063
2018-01-22T13:46:42.907Z,100065
2018-01-22T13:49:15.547Z,100082
2018-01-22T13:51:46.304Z,100128
2018-01-22T13:54:16.174Z,100087
2018-01-22T13:59:41.062Z,100092
2018-01-22T14:02:15.059Z,100098
2018-01-22T14:04:44.801Z,100086
2018-01-22T14:07:16.553Z,100089
2018-01-22T14:09:47.576Z,100099
2018-01-22T14:12:15.745Z,100114
2018-01-22T14:14:43.905Z,100117
2018-01-22T14:17:12.052Z,100117
2018-01-22T14:19:40.190Z,100120
2018-01-22T14:22:08.275Z,100137
2018-01-22T14:24:36.426Z,100119
2018-01-22T14:27:04.557Z,100129
2018-01-22T14:29:33.415Z,100135
2018-01-22T14:32:01.595Z,100139
2018-01-22T14:34:29.714Z,100133
2018-01-22T14:37:00.312Z,100143
2018-01-22T14:39:29.494Z,100157
2018-01-22T14:41:57.609Z,100154
2018-01-22T14:44:25.736Z,100171
2018-01-22T14:46:53.895Z,100176
2018-01-22T14:49:21.991Z,100165
2018-01-22T14:51:50.112Z,100179
2018-01-22T14:54:20.728Z,100182
2018-01-22T14:56:50.554Z,100177
2018-01-22T14:59:18.705Z,100188
2018-01-22T15:01:47.571Z,100180
2018-01-22T15:04:15.719Z,100190
2018-01-22T15:06:43.850Z,100194
2018-01-22T15:09:11.971Z,100202
2018-01-22T15:11:40.085Z,100204
2018-01-22T15:14:08.220Z,100207
2018-01-22T15:16:36.322Z,100206
2018-01-22T15:19:05.223Z,100216
2018-01-22T15:21:34.102Z,100227
2018-01-22T15:24:10.528Z,99871
2018-01-22T15:26:54.380Z,100234
2018-01-22T15:29:22.582Z,100239
2018-01-22T15:31:51.615Z,100245
2018-01-22T15:34:19.755Z,100233
2018-01-22T15:36:49.667Z,100240
2018-01-22T15:39:18.081Z,100251
2018-01-22T15:41:46.254Z,100249
2018-01-22T15:44:15.299Z,100261
2018-01-22T15:46:43.463Z,100285
2018-01-22T15:49:11.615Z,100292
2018-01-22T15:51:39.714Z,100296
2018-01-22T15:54:13.817Z,100301
2018-01-22T15:56:43.891Z,100304
2018-01-22T15:59:12.075Z,100313
2018-01-22T16:01:40.185Z,100316
2018-01-22T16:04:14.910Z,100317
2018-01-22T16:06:43.026Z,100324
2018-01-22T16:09:13.318Z,100333
2018-01-22T16:11:44.491Z,100341
2018-01-22T16:14:13.543Z,100347
2018-01-22T16:16:43.125Z,100353
2018-01-22T17:47:51.408Z,100534
2018-01-22T17:50:20.673Z,100538
2018-01-22T17:55:52.303Z,100535
2018-01-22T18:01:40.993Z,100562
2018-01-22T18:04:14.557Z,100568
2018-01-22T18:06:43.496Z,100572
2018-01-22T18:09:12.667Z,100576
2018-01-22T18:16:03.536Z,100582
2018-01-22T18:21:26.482Z,100598
2018-01-22T18:29:57.798Z,100626
2018-01-22T18:32:25.934Z,100629
2018-01-22T18:38:57.609Z,100643
2018-01-22T18:41:25.719Z,100644
2018-01-22T18:44:03.882Z,100644
2018-01-22T18:46:33.904Z,100660
2018-01-22T18:57:46.974Z,100656
2018-01-22T19:03:29.190Z,100680
2018-01-22T19:25:44.268Z,100707
2018-01-22T19:28:34.933Z,100706
2018-01-22T19:31:06.814Z,100707
2018-01-22T19:33:35.043Z,100724
2018-01-22T19:38:48.947Z,100732
2018-01-22T19:41:17.189Z,100742
2018-01-22T19:46:28.440Z,100730
2018-01-22T19:48:59.679Z,100734
2018-01-22T19:51:27.871Z,100739
2018-01-22T19:54:04.907Z,100750
2018-01-22T19:56:55.812Z,100744
2018-01-22T19:59:24.063Z,100757
2018-01-22T20:04:28.335Z,100772
2018-01-22T20:06:59.569Z,100765
2018-01-22T20:09:32.912Z,100764
2018-01-22T20:12:05.496Z,100767
2018-01-22T20:14:33.689Z,100772
2018-01-22T20:17:03.487Z,100788
2018-01-22T20:19:33.168Z,100865
2018-01-22T20:22:05.353Z,100818
2018-01-22T20:24:35.305Z,100816
2018-01-22T20:27:05.849Z,100813
2018-01-22T20:29:34.995Z,100809
2018-01-22T20:32:03.953Z,100806
2018-01-22T20:34:34.822Z,100815
2018-01-22T20:37:03.613Z,100819
2018-01-22T20:39:32.806Z,100822
2018-01-22T20:42:02.135Z,100817
2018-01-22T20:44:30.282Z,100731
2018-01-22T20:53:29.282Z,100852
2018-01-22T20:59:02.948Z,100856
2018-01-22T21:01:31.347Z,100869
2018-01-22T21:04:01.848Z,100865
2018-01-22T21:06:32.987Z,100863
2018-01-22T21:09:01.203Z,100859
2018-01-22T21:11:32.919Z,100873
2018-01-22T21:14:01.308Z,100874
2018-01-22T21:16:29.422Z,100883
2018-01-22T21:19:00.616Z,100901
2018-01-22T21:21:31.593Z,100904
2018-01-22T21:24:04.768Z,100897
2018-01-22T21:26:35.670Z,100903
2018-01-22T21:29:04.869Z,100904
2018-01-22T21:31:32.996Z,100908
2018-01-22T21:34:03.249Z,100906
2018-01-22T21:36:36.152Z,100892
2018-01-22T21:39:20.177Z,100897
2018-01-22T21:41:49.580Z,100913
2018-01-22T21:50:03.958Z,100932
2018-01-22T21:58:57.357Z,100948
2018-01-22T22:17:10.157Z,100985
2018-01-22T22:22:59.601Z,100986
2018-01-22T22:28:14.671Z,100999
2018-01-22T22:37:25.677Z,101011
2018-01-22T22:39:58.209Z,100813
2018-01-22T22:49:27.104Z,101028
2018-01-22T22:51:59.188Z,101027
2018-01-22T22:57:04.862Z,101038
2018-01-22T23:06:55.664Z,101055
2018-01-22T23:09:27.647Z,101049
2018-01-22T23:11:55.763Z,101041
2018-01-22T23:26:44.736Z,101074
2018-01-22T23:31:56.774Z,101080
2018-01-22T23:34:25.843Z,101079
2018-01-22T23:37:09.792Z,101086
2018-01-22T23:39:37.904Z,101091
2018-01-22T23:42:09.954Z,101086
2018-01-22T23:44:42.028Z,101094
2018-01-22T23:49:43.421Z,101102
2018-01-22T23:54:55.182Z,101108
